Time;durP1;ratioP1;P1;durP2;ratioP2;P2;SDS_P1;SDS_P2;PMS_P1;PMS_P2;Temp;Humidity;BMP_temperature;BMP_pressure;BME280_temperature;BME280_humidity;BME280_pressure;Samples;Min_cycle;Max_cycle;Signal;HPM_P1;HPM_P2
2023/02/02 00:01:19;;;;;;;;;6.00;4.50;;;;;;;;5096253;27;11178;-84
2023/02/02 00:03:47;;;;;;;;;2.75;2.75;;;;;;;;5099417;28;11162;-84
2023/02/02 00:06:15;;;;;;;;;2.25;2.25;;;;;;;;5081343;28;11242;-84
2023/02/02 00:08:45;;;;;;;;;6.25;3.75;;;;;;;;5094314;27;11402;-85
2023/02/02 00:11:12;;;;;;;;;5.75;2.25;;;;;;;;5097444;28;11539;-85
2023/02/02 00:13:42;;;;;;;;;7.50;4.50;;;;;;;;5090272;28;11440;-84
2023/02/02 00:16:40;;;;;;;;;2.00;2.00;;;;;;;;5082875;28;11441;-85
2023/02/02 00:19:10;;;;;;;;;2.75;2.75;;;;;;;;5100911;28;11383;-85
2023/02/02 00:21:38;;;;;;;;;8.25;5.50;;;;;;;;5078103;28;11430;-85
2023/02/02 00:24:09;;;;;;;;;3.00;1.75;;;;;;;;5097123;28;11488;-85
2023/02/02 00:26:38;;;;;;;;;7.50;3.25;;;;;;;;5081928;28;11459;-84
2023/02/02 00:29:07;;;;;;;;;5.50;2.75;;;;;;;;5096308;28;11551;-85
2023/02/02 00:31:35;;;;;;;;;4.50;2.50;;;;;;;;5096025;27;11378;-85
2023/02/02 00:34:02;;;;;;;;;0.00;0.00;;;;;;;;5100984;28;11467;-85
2023/02/02 00:36:30;;;;;;;;;7.25;3.00;;;;;;;;5083341;28;11120;-85
2023/02/02 00:38:57;;;;;;;;;3.00;2.25;;;;;;;;5084356;28;11550;-85
2023/02/02 00:41:26;;;;;;;;;3.00;2.00;;;;;;;;5084222;28;11427;-85
2023/02/02 00:46:36;;;;;;;;;4.50;2.75;;;;;;;;5089032;28;11156;-84
2023/02/02 00:49:03;;;;;;;;;1.50;1.50;;;;;;;;5077468;28;11420;-84
2023/02/02 00:51:31;;;;;;;;;2.50;2.50;;;;;;;;5079017;28;11420;-85
2023/02/02 00:53:59;;;;;;;;;3.00;3.00;;;;;;;;5078493;28;11552;-84
2023/02/02 00:56:27;;;;;;;;;6.75;3.75;;;;;;;;5082680;28;11416;-84
2023/02/02 00:58:55;;;;;;;;;4.00;2.25;;;;;;;;5095031;28;11424;-85
2023/02/02 01:01:24;;;;;;;;;6.50;4.50;;;;;;;;5081953;28;11358;-85
2023/02/02 01:03:52;;;;;;;;;3.00;1.50;;;;;;;;5098698;28;11439;-85
2023/02/02 01:06:19;;;;;;;;;3.00;3.00;;;;;;;;5077734;28;11227;-85
2023/02/02 01:08:47;;;;;;;;;4.50;3.00;;;;;;;;5098702;27;11449;-85
2023/02/02 01:11:16;;;;;;;;;5.00;5.00;;;;;;;;5080603;28;11393;-85
2023/02/02 01:13:46;;;;;;;;;3.00;1.25;;;;;;;;5082750;27;11426;-85
2023/02/02 01:16:14;;;;;;;;;4.00;2.25;;;;;;;;5094642;28;11502;-85
2023/02/02 01:18:42;;;;;;;;;5.25;3.00;;;;;;;;5094515;27;11408;-85
2023/02/02 01:21:11;;;;;;;;;3.50;3.50;;;;;;;;5096079;28;11439;-85
2023/02/02 01:23:40;;;;;;;;;6.75;4.00;;;;;;;;5093282;28;11473;-85
2023/02/02 01:26:10;;;;;;;;;12.00;3.00;;;;;;;;5078941;28;11465;-85
2023/02/02 01:28:37;;;;;;;;;6.75;3.75;;;;;;;;5093677;28;11391;-85
2023/02/02 01:31:15;;;;;;;;;5.00;4.00;;;;;;;;5099857;28;11333;-85
2023/02/02 01:33:43;;;;;;;;;7.00;5.00;;;;;;;;5096084;28;11489;-85
2023/02/02 01:36:13;;;;;;;;;2.25;2.00;;;;;;;;5092729;28;11398;-85
2023/02/02 01:38:41;;;;;;;;;5.00;3.00;;;;;;;;5095548;28;11419;-86
2023/02/02 01:41:10;;;;;;;;;7.00;4.00;;;;;;;;5097498;27;11403;-86
2023/02/02 01:43:53;;;;;;;;;7.00;3.00;;;;;;;;5096248;28;11433;-85
2023/02/02 01:46:24;;;;;;;;;3.50;3.50;;;;;;;;5085057;28;11428;-85
2023/02/02 01:48:57;;;;;;;;;9.50;5.25;;;;;;;;5088445;28;11433;-85
2023/02/02 01:51:30;;;;;;;;;6.50;3.50;;;;;;;;5112542;27;11485;-85
2023/02/02 01:53:59;;;;;;;;;6.25;4.00;;;;;;;;5096500;28;11413;-84
2023/02/02 01:56:29;;;;;;;;;5.50;5.50;;;;;;;;5097042;28;11395;-85
2023/02/02 01:58:56;;;;;;;;;7.25;5.50;;;;;;;;5096751;28;11399;-85
2023/02/02 02:01:26;;;;;;;;;6.00;4.00;;;;;;;;5095442;27;11362;-85
2023/02/02 02:03:54;;;;;;;;;4.00;4.00;;;;;;;;5098929;28;11432;-85
2023/02/02 02:06:24;;;;;;;;;7.00;3.25;;;;;;;;5080824;28;11431;-85
2023/02/02 02:08:54;;;;;;;;;8.00;4.50;;;;;;;;5094233;28;11391;-85
2023/02/02 02:11:23;;;;;;;;;3.00;3.00;;;;;;;;5080429;28;11442;-85
2023/02/02 02:16:51;;;;;;;;;7.75;3.00;;;;;;;;5086185;28;11375;-84
2023/02/02 02:28:49;;;;;;;;;6.00;4.00;;;;;;;;5064191;28;11356;-85
2023/02/02 02:31:41;;;;;;;;;6.50;3.75;;;;;;;;5088326;28;11301;-85
2023/02/02 02:34:16;;;;;;;;;5.00;4.00;;;;;;;;5098061;28;11416;-85
2023/02/02 02:36:49;;;;;;;;;6.75;4.00;;;;;;;;5097125;28;11356;-85
2023/02/02 02:39:21;;;;;;;;;3.25;2.00;;;;;;;;5076894;27;11498;-85
2023/02/02 02:41:52;;;;;;;;;4.00;4.00;;;;;;;;5098607;28;11398;-85
2023/02/02 02:44:21;;;;;;;;;3.00;3.00;;;;;;;;5104562;28;11339;-84
2023/02/02 02:46:49;;;;;;;;;3.00;2.00;;;;;;;;5082193;28;11397;-84
2023/02/02 02:49:18;;;;;;;;;5.50;2.25;;;;;;;;5101374;27;12119;-83
2023/02/02 02:51:48;;;;;;;;;9.75;5.75;;;;;;;;5085766;27;11391;-84
2023/02/02 02:54:21;;;;;;;;;10.00;5.00;;;;;;;;5103149;27;11448;-84
2023/02/02 02:57:06;;;;;;;;;4.75;3.00;;;;;;;;5099089;27;11405;-84
2023/02/02 02:59:38;;;;;;;;;4.00;2.75;;;;;;;;5080605;28;11403;-84
2023/02/02 03:02:23;;;;;;;;;3.25;2.75;;;;;;;;5100969;27;11428;-84
2023/02/02 03:05:00;;;;;;;;;9.00;4.25;;;;;;;;5099904;28;11350;-84
2023/02/02 03:07:33;;;;;;;;;7.25;5.50;;;;;;;;5070438;28;11428;-85
2023/02/02 03:10:02;;;;;;;;;2.75;2.25;;;;;;;;5096999;27;11408;-84
2023/02/02 03:12:29;;;;;;;;;3.00;3.00;;;;;;;;5062555;27;11424;-84
2023/02/02 03:14:56;;;;;;;;;6.75;3.50;;;;;;;;5100533;28;11383;-84
2023/02/02 03:17:24;;;;;;;;;3.00;3.00;;;;;;;;5101328;27;11494;-85
2023/02/02 03:19:53;;;;;;;;;5.25;3.00;;;;;;;;5098880;27;11399;-84
2023/02/02 03:22:20;;;;;;;;;5.00;5.00;;;;;;;;5071951;28;11381;-84
2023/02/02 03:24:48;;;;;;;;;7.00;4.00;;;;;;;;5088902;28;12190;-84
2023/02/02 03:27:16;;;;;;;;;3.25;3.00;;;;;;;;5035773;28;11379;-83
2023/02/02 03:29:43;;;;;;;;;3.00;3.00;;;;;;;;5055087;28;11439;-83
2023/02/02 03:32:11;;;;;;;;;5.50;5.50;;;;;;;;5073245;28;11335;-84
2023/02/02 03:34:38;;;;;;;;;6.25;3.75;;;;;;;;5071937;28;11398;-84
2023/02/02 03:37:07;;;;;;;;;3.75;3.50;;;;;;;;5084081;28;11387;-83
2023/02/02 03:39:35;;;;;;;;;6.00;4.25;;;;;;;;5066921;28;11445;-83
2023/02/02 03:42:03;;;;;;;;;7.25;3.00;;;;;;;;5089488;28;11391;-82
2023/02/02 03:44:30;;;;;;;;;6.25;5.25;;;;;;;;5076809;28;11414;-83
2023/02/02 03:46:58;;;;;;;;;7.00;4.25;;;;;;;;5061301;28;11446;-83
2023/02/02 03:49:25;;;;;;;;;3.75;2.00;;;;;;;;5083912;28;11452;-83
2023/02/02 03:51:53;;;;;;;;;4.00;4.00;;;;;;;;5086781;28;11414;-83
2023/02/02 03:54:22;;;;;;;;;3.75;3.75;;;;;;;;5070014;28;11352;-83
2023/02/02 03:56:49;;;;;;;;;4.25;4.25;;;;;;;;5088954;28;11415;-83
2023/02/02 03:59:16;;;;;;;;;3.50;2.75;;;;;;;;5086562;28;11396;-83
2023/02/02 04:01:44;;;;;;;;;3.00;3.00;;;;;;;;5072400;28;11336;-83
2023/02/02 04:04:11;;;;;;;;;4.25;4.25;;;;;;;;5084236;28;11359;-84
2023/02/02 04:06:39;;;;;;;;;6.00;5.25;;;;;;;;5089731;28;11362;-84
2023/02/02 04:09:07;;;;;;;;;6.50;3.75;;;;;;;;5070585;28;11410;-84
2023/02/02 04:11:35;;;;;;;;;5.00;2.25;;;;;;;;5088313;28;11434;-84
2023/02/02 04:14:03;;;;;;;;;4.50;3.00;;;;;;;;5087110;28;11474;-84
2023/02/02 04:16:33;;;;;;;;;5.25;2.00;;;;;;;;5090378;28;11556;-84
2023/02/02 04:19:02;;;;;;;;;5.25;2.00;;;;;;;;5067472;28;11952;-84
2023/02/02 04:21:29;;;;;;;;;9.75;4.25;;;;;;;;5092078;28;12635;-84
2023/02/02 04:23:57;;;;;;;;;1.50;1.50;;;;;;;;5065721;28;11413;-84
2023/02/02 04:26:25;;;;;;;;;2.00;2.00;;;;;;;;5085819;28;11444;-85
2023/02/02 04:28:55;;;;;;;;;5.00;4.75;;;;;;;;5082689;28;11586;-85
2023/02/02 04:31:23;;;;;;;;;3.00;3.00;;;;;;;;5102579;28;11392;-84
2023/02/02 04:33:50;;;;;;;;;5.00;5.00;;;;;;;;5096833;28;11492;-84
2023/02/02 04:36:18;;;;;;;;;2.25;2.25;;;;;;;;5079125;28;11468;-84
2023/02/02 04:38:48;;;;;;;;;3.25;2.00;;;;;;;;5098556;28;11454;-83
2023/02/02 04:41:17;;;;;;;;;2.75;2.75;;;;;;;;5101955;28;11407;-83
2023/02/02 04:43:45;;;;;;;;;5.00;4.50;;;;;;;;5082627;28;11507;-84
2023/02/02 04:46:15;;;;;;;;;3.00;3.00;;;;;;;;5063898;28;11379;-85
2023/02/02 04:48:43;;;;;;;;;3.00;2.75;;;;;;;;5101137;27;11397;-84
2023/02/02 04:51:12;;;;;;;;;4.00;2.25;;;;;;;;5100154;28;11417;-84
2023/02/02 04:53:41;;;;;;;;;4.25;3.25;;;;;;;;5102476;28;12208;-84
2023/02/02 04:56:10;;;;;;;;;6.75;4.50;;;;;;;;5096295;28;11440;-84
2023/02/02 04:58:37;;;;;;;;;10.50;5.00;;;;;;;;5079068;28;11861;-84
2023/02/02 05:01:10;;;;;;;;;4.50;2.25;;;;;;;;5073796;28;11403;-84
2023/02/02 05:03:39;;;;;;;;;5.25;3.00;;;;;;;;5097621;28;11485;-84
2023/02/02 05:06:07;;;;;;;;;3.75;3.75;;;;;;;;5096475;27;11454;-83
2023/02/02 05:08:35;;;;;;;;;6.00;3.50;;;;;;;;5078101;28;11451;-84
2023/02/02 05:11:08;;;;;;;;;7.25;4.50;;;;;;;;5093014;27;11396;-84
2023/02/02 05:13:35;;;;;;;;;3.50;3.50;;;;;;;;5080221;28;11405;-83
2023/02/02 05:16:03;;;;;;;;;3.00;3.00;;;;;;;;5083615;28;11396;-84
2023/02/02 05:18:31;;;;;;;;;4.00;4.00;;;;;;;;5095793;28;11395;-83
2023/02/02 05:21:02;;;;;;;;;7.00;6.00;;;;;;;;5097232;28;11484;-83
2023/02/02 05:23:31;;;;;;;;;6.00;1.50;;;;;;;;5097863;28;11417;-84
2023/02/02 05:25:59;;;;;;;;;5.25;3.75;;;;;;;;5079034;28;11468;-84
2023/02/02 05:28:26;;;;;;;;;3.75;2.00;;;;;;;;5082333;28;11386;-83
2023/02/02 05:30:53;;;;;;;;;3.50;2.00;;;;;;;;5097157;28;11344;-88
2023/02/02 05:33:21;;;;;;;;;2.75;2.75;;;;;;;;5098532;28;11390;-86
2023/02/02 05:35:50;;;;;;;;;3.00;3.00;;;;;;;;5101333;28;11454;-85
2023/02/02 05:38:19;;;;;;;;;6.25;3.50;;;;;;;;5096769;28;11447;-84
2023/02/02 05:40:49;;;;;;;;;2.75;2.75;;;;;;;;5097361;28;11442;-83
2023/02/02 05:43:18;;;;;;;;;6.50;3.75;;;;;;;;5095158;28;11544;-84
2023/02/02 05:45:45;;;;;;;;;5.50;5.50;;;;;;;;5095906;28;11490;-85
2023/02/02 05:48:14;;;;;;;;;5.00;4.00;;;;;;;;5092505;28;11414;-84
2023/02/02 05:50:42;;;;;;;;;3.75;3.75;;;;;;;;5095321;27;11408;-84
2023/02/02 05:53:10;;;;;;;;;6.00;4.00;;;;;;;;5095796;28;11444;-83
2023/02/02 05:55:39;;;;;;;;;3.50;2.00;;;;;;;;5095601;28;11455;-84
2023/02/02 05:58:06;;;;;;;;;5.25;2.50;;;;;;;;5098634;28;11405;-83
2023/02/02 06:00:34;;;;;;;;;3.00;3.00;;;;;;;;5077970;28;11452;-84
2023/02/02 06:03:01;;;;;;;;;6.75;3.50;;;;;;;;5097575;28;11388;-84
2023/02/02 06:05:29;;;;;;;;;2.25;2.00;;;;;;;;5094256;28;11448;-84
2023/02/02 06:07:56;;;;;;;;;6.00;4.00;;;;;;;;5081311;28;11407;-84
2023/02/02 06:10:23;;;;;;;;;6.50;3.00;;;;;;;;5097116;28;11434;-84
2023/02/02 06:12:52;;;;;;;;;2.75;1.50;;;;;;;;5082110;27;11384;-83
2023/02/02 06:15:20;;;;;;;;;3.50;2.00;;;;;;;;5094008;28;11438;-83
2023/02/02 06:17:47;;;;;;;;;5.00;2.25;;;;;;;;5079641;28;11515;-83
2023/02/02 06:20:15;;;;;;;;;3.00;3.00;;;;;;;;5092896;27;11434;-83
2023/02/02 06:22:42;;;;;;;;;5.75;4.00;;;;;;;;5102931;27;11519;-83
2023/02/02 06:25:10;;;;;;;;;0.75;0.25;;;;;;;;5082499;28;11373;-83
2023/02/02 06:27:38;;;;;;;;;4.75;3.00;;;;;;;;5101289;28;12226;-83
2023/02/02 06:30:09;;;;;;;;;2.00;2.00;;;;;;;;5067737;28;11463;-84
2023/02/02 06:32:37;;;;;;;;;6.50;5.00;;;;;;;;5070426;28;11465;-80
2023/02/02 06:35:05;;;;;;;;;6.75;2.75;;;;;;;;5101193;28;11561;-80
2023/02/02 06:37:34;;;;;;;;;8.25;4.00;;;;;;;;5105669;28;11463;-83
2023/02/02 06:40:01;;;;;;;;;4.00;2.50;;;;;;;;5081659;28;11412;-83
2023/02/02 06:42:29;;;;;;;;;2.50;1.75;;;;;;;;5065753;28;11460;-85
2023/02/02 06:44:56;;;;;;;;;6.00;3.00;;;;;;;;5086416;28;11418;-85
2023/02/02 06:47:26;;;;;;;;;5.50;3.00;;;;;;;;5102757;28;11481;-84
2023/02/02 06:49:53;;;;;;;;;7.00;4.00;;;;;;;;5108667;28;11535;-83
2023/02/02 06:52:21;;;;;;;;;4.00;2.25;;;;;;;;5092350;28;11434;-83
2023/02/02 06:54:49;;;;;;;;;5.00;3.75;;;;;;;;5108658;28;11526;-84
2023/02/02 06:57:16;;;;;;;;;6.25;3.00;;;;;;;;5108579;28;11414;-84
2023/02/02 06:59:44;;;;;;;;;7.00;3.00;;;;;;;;5086398;28;12088;-84
2023/02/02 07:02:12;;;;;;;;;5.00;3.00;;;;;;;;5102870;28;11365;-84
2023/02/02 07:04:41;;;;;;;;;6.25;4.00;;;;;;;;5103461;28;11409;-83
2023/02/02 07:07:09;;;;;;;;;4.00;4.00;;;;;;;;5105858;28;11427;-84
2023/02/02 07:09:36;;;;;;;;;3.00;3.00;;;;;;;;5104818;28;11368;-84
2023/02/02 07:12:04;;;;;;;;;4.25;2.50;;;;;;;;5102675;28;11929;-84
2023/02/02 07:14:32;;;;;;;;;3.00;3.00;;;;;;;;5089876;28;11438;-83
2023/02/02 07:16:59;;;;;;;;;6.00;3.00;;;;;;;;5091906;28;11402;-84
2023/02/02 07:19:30;;;;;;;;;3.75;2.75;;;;;;;;5104796;28;11419;-84
2023/02/02 07:21:58;;;;;;;;;3.25;3.25;;;;;;;;5078932;28;11418;-83
2023/02/02 07:24:26;;;;;;;;;2.00;2.00;;;;;;;;5100056;28;11441;-84
2023/02/02 07:26:54;;;;;;;;;2.25;2.25;;;;;;;;5104256;28;11417;-83
2023/02/02 07:29:21;;;;;;;;;3.75;3.00;;;;;;;;5104119;28;11419;-73
2023/02/02 07:31:49;;;;;;;;;8.25;4.00;;;;;;;;5097469;27;11449;-71
2023/02/02 07:34:17;;;;;;;;;3.00;3.00;;;;;;;;5102008;28;11384;-71
2023/02/02 07:36:44;;;;;;;;;4.75;2.00;;;;;;;;5100785;28;11482;-72
2023/02/02 07:39:14;;;;;;;;;3.25;3.25;;;;;;;;5099407;28;11396;-72
2023/02/02 07:41:42;;;;;;;;;3.25;2.25;;;;;;;;5096714;28;11487;-72
2023/02/02 07:44:15;;;;;;;;;6.00;1.75;;;;;;;;5100891;28;11375;-71
2023/02/02 07:46:42;;;;;;;;;2.00;2.00;;;;;;;;5079900;28;11559;-70
2023/02/02 07:49:14;;;;;;;;;2.00;2.00;;;;;;;;5098347;28;11431;-70
2023/02/02 07:51:41;;;;;;;;;3.00;3.00;;;;;;;;5096615;28;11278;-71
2023/02/02 07:54:09;;;;;;;;;0.00;0.00;;;;;;;;5097370;28;11463;-70
2023/02/02 07:56:38;;;;;;;;;4.50;2.75;;;;;;;;5098006;28;12059;-69
2023/02/02 07:59:06;;;;;;;;;5.75;2.25;;;;;;;;5078578;28;11429;-70
2023/02/02 08:01:33;;;;;;;;;6.75;3.00;;;;;;;;5097125;28;11369;-70
2023/02/02 08:04:02;;;;;;;;;4.50;3.00;;;;;;;;5098400;28;11483;-70
2023/02/02 08:06:31;;;;;;;;;4.75;4.00;;;;;;;;5097422;28;11437;-70
2023/02/02 08:08:59;;;;;;;;;4.50;3.00;;;;;;;;5081769;28;11421;-70
2023/02/02 08:11:28;;;;;;;;;6.25;6.25;;;;;;;;5098279;27;11420;-70
2023/02/02 08:13:58;;;;;;;;;8.00;3.75;;;;;;;;5080135;28;11463;-71
2023/02/02 08:16:27;;;;;;;;;2.00;2.00;;;;;;;;5080298;28;11376;-70
2023/02/02 08:18:55;;;;;;;;;4.00;4.00;;;;;;;;5097991;28;11388;-71
2023/02/02 08:21:23;;;;;;;;;2.75;2.75;;;;;;;;5093998;28;11447;-70
2023/02/02 08:23:52;;;;;;;;;8.00;2.00;;;;;;;;5099116;28;12165;-70
2023/02/02 08:26:22;;;;;;;;;4.00;4.00;;;;;;;;5095305;28;11119;-70
2023/02/02 08:28:53;;;;;;;;;6.00;3.50;;;;;;;;5096547;28;11579;-70
2023/02/02 08:31:24;;;;;;;;;3.25;1.50;;;;;;;;5061049;28;11351;-71
2023/02/02 08:33:53;;;;;;;;;3.00;3.00;;;;;;;;5098987;28;11454;-70
2023/02/02 08:36:22;;;;;;;;;7.75;4.50;;;;;;;;5099422;28;11534;-70
2023/02/02 08:38:50;;;;;;;;;3.75;2.00;;;;;;;;5095648;28;11420;-70
2023/02/02 08:41:20;;;;;;;;;4.00;1.00;;;;;;;;5098955;27;11443;-70
2023/02/02 08:43:48;;;;;;;;;3.75;3.75;;;;;;;;5080008;28;11246;-69
2023/02/02 08:46:16;;;;;;;;;2.50;2.50;;;;;;;;5095223;28;11413;-69
2023/02/02 08:48:45;;;;;;;;;2.00;1.25;;;;;;;;5094254;28;11391;-70
2023/02/02 08:51:15;;;;;;;;;6.50;3.25;;;;;;;;5097062;28;11209;-71
2023/02/02 08:53:42;;;;;;;;;1.75;1.75;;;;;;;;5096058;28;12416;-70
2023/02/02 08:56:12;;;;;;;;;4.00;3.00;;;;;;;;5095564;28;11425;-70
2023/02/02 08:58:39;;;;;;;;;7.50;2.50;;;;;;;;5095152;28;11123;-70
2023/02/02 09:01:09;;;;;;;;;3.25;2.00;;;;;;;;5094348;28;11164;-70
2023/02/02 09:03:39;;;;;;;;;2.75;2.00;;;;;;;;5098370;28;11091;-70
2023/02/02 09:06:09;;;;;;;;;3.00;2.50;;;;;;;;5095774;28;11135;-70
2023/02/02 09:08:37;;;;;;;;;5.75;3.00;;;;;;;;5094124;28;11041;-71
2023/02/02 09:11:06;;;;;;;;;3.75;3.75;;;;;;;;5091656;28;11122;-70
2023/02/02 09:13:33;;;;;;;;;3.25;3.25;;;;;;;;5098621;27;10980;-71
2023/02/02 09:16:01;;;;;;;;;6.00;3.00;;;;;;;;5094969;28;11047;-70
2023/02/02 09:18:29;;;;;;;;;4.00;4.00;;;;;;;;5095132;28;11935;-70
2023/02/02 09:21:00;;;;;;;;;7.00;3.00;;;;;;;;5093884;28;11097;-70
2023/02/02 09:23:29;;;;;;;;;3.00;3.00;;;;;;;;5093041;28;10879;-70
2023/02/02 09:25:57;;;;;;;;;6.75;5.50;;;;;;;;5093816;28;10837;-70
2023/02/02 09:28:24;;;;;;;;;3.00;3.00;;;;;;;;5093960;28;11093;-70
2023/02/02 09:30:52;;;;;;;;;2.00;2.00;;;;;;;;5076159;28;10970;-70
2023/02/02 09:33:20;;;;;;;;;1.50;1.50;;;;;;;;5091629;28;10961;-70
2023/02/02 09:35:47;;;;;;;;;7.00;3.00;;;;;;;;5060634;28;10894;-68
2023/02/02 09:38:14;;;;;;;;;5.75;4.75;;;;;;;;5092394;28;11260;-69
2023/02/02 09:40:43;;;;;;;;;3.75;3.75;;;;;;;;5079789;28;10969;-70
2023/02/02 09:43:25;;;;;;;;;6.00;3.25;;;;;;;;5093461;27;10919;-70
2023/02/02 09:45:58;;;;;;;;;6.25;3.25;;;;;;;;5095916;27;10898;-71
2023/02/02 09:48:32;;;;;;;;;3.25;3.25;;;;;;;;5107502;27;10828;-72
2023/02/02 09:51:01;;;;;;;;;4.00;3.00;;;;;;;;5095974;28;10792;-70
2023/02/02 09:53:38;;;;;;;;;4.50;3.00;;;;;;;;5094377;28;10753;-72
2023/02/02 09:56:14;;;;;;;;;6.25;4.00;;;;;;;;5095659;28;10730;-70
2023/02/02 09:58:48;;;;;;;;;4.00;4.00;;;;;;;;5092843;28;10704;-69
2023/02/02 10:01:18;;;;;;;;;3.00;3.00;;;;;;;;5089027;28;10646;-70
2023/02/02 10:03:56;;;;;;;;;3.00;3.00;;;;;;;;5087298;28;10785;-72
2023/02/02 10:06:29;;;;;;;;;2.75;2.00;;;;;;;;5090894;28;10859;-72
2023/02/02 10:09:02;;;;;;;;;5.50;2.00;;;;;;;;5089399;28;10735;-70
2023/02/02 10:11:35;;;;;;;;;4.50;4.00;;;;;;;;5089774;28;10586;-70
2023/02/02 10:14:05;;;;;;;;;3.50;2.25;;;;;;;;5094184;28;10745;-70
2023/02/02 10:16:34;;;;;;;;;3.75;2.00;;;;;;;;5093574;28;10617;-70
2023/02/02 10:19:04;;;;;;;;;2.50;2.50;;;;;;;;5095774;28;10566;-70
2023/02/02 10:21:41;;;;;;;;;3.25;3.25;;;;;;;;5093723;28;10616;-70
2023/02/02 10:24:17;;;;;;;;;5.25;3.75;;;;;;;;5096760;28;10522;-71
2023/02/02 10:26:48;;;;;;;;;4.00;3.25;;;;;;;;5093705;28;10632;-72
2023/02/02 10:29:24;;;;;;;;;2.50;2.50;;;;;;;;5094962;28;10551;-72
2023/02/02 10:32:03;;;;;;;;;3.00;3.00;;;;;;;;5076632;28;10489;-70
2023/02/02 10:34:36;;;;;;;;;7.00;3.00;;;;;;;;5090565;28;11568;-72
2023/02/02 10:37:17;;;;;;;;;2.50;2.50;;;;;;;;5091478;28;10455;-70
2023/02/02 10:39:55;;;;;;;;;2.75;2.75;;;;;;;;5092196;28;10559;-68
2023/02/02 10:42:33;;;;;;;;;3.00;1.00;;;;;;;;5096100;28;10477;-70
2023/02/02 10:45:03;;;;;;;;;1.00;1.00;;;;;;;;5092195;28;10432;-70
2023/02/02 10:47:33;;;;;;;;;7.00;3.00;;;;;;;;5098311;27;10589;-77
2023/02/02 10:50:15;;;;;;;;;3.75;1.25;;;;;;;;5093876;28;10565;-70
2023/02/02 10:52:45;;;;;;;;;6.00;3.75;;;;;;;;5096770;28;10459;-70
2023/02/02 10:55:22;;;;;;;;;4.00;3.00;;;;;;;;5093276;28;10461;-70
2023/02/02 10:57:57;;;;;;;;;2.50;2.50;;;;;;;;5078248;28;10379;-70
2023/02/02 11:00:28;;;;;;;;;4.00;2.25;;;;;;;;5078880;27;10340;-70
2023/02/02 11:02:57;;;;;;;;;3.75;2.00;;;;;;;;5077841;28;10299;-70
2023/02/02 11:08:17;;;;;;;;;2.50;2.25;;;;;;;;5095790;28;10420;-70
2023/02/02 11:10:45;;;;;;;;;3.00;2.00;;;;;;;;5096073;28;10213;-70
2023/02/02 11:13:23;;;;;;;;;1.50;1.50;;;;;;;;5085468;28;10201;-71
2023/02/02 11:15:50;;;;;;;;;2.00;2.00;;;;;;;;5093421;28;10144;-70
2023/02/02 11:18:31;;;;;;;;;3.00;1.75;;;;;;;;5097270;28;10133;-71
2023/02/02 11:20:59;;;;;;;;;2.50;2.50;;;;;;;;5099212;28;10335;-71
2023/02/02 11:23:28;;;;;;;;;3.00;2.00;;;;;;;;5098413;28;10172;-71
2023/02/02 11:26:00;;;;;;;;;4.75;2.00;;;;;;;;5096543;28;11102;-71
2023/02/02 11:28:34;;;;;;;;;2.00;2.00;;;;;;;;5079694;28;10171;-71
2023/02/02 11:31:02;;;;;;;;;1.25;1.25;;;;;;;;5078503;28;10177;-70
2023/02/02 11:33:31;;;;;;;;;1.75;1.75;;;;;;;;5096841;28;9977;-71
2023/02/02 11:36:01;;;;;;;;;3.75;2.00;;;;;;;;5092457;28;10118;-71
2023/02/02 11:38:32;;;;;;;;;2.50;2.00;;;;;;;;5094714;28;9748;-71
2023/02/02 11:41:02;;;;;;;;;3.00;3.00;;;;;;;;5099451;28;9679;-71
2023/02/02 11:43:39;;;;;;;;;2.67;2.67;;;;;;;;5095859;28;9939;-71
2023/02/02 11:46:17;;;;;;;;;2.33;2.33;;;;;;;;5098405;28;9321;-71
2023/02/02 11:48:59;;;;;;;;;2.00;2.00;;;;;;;;5079118;28;9194;-71
2023/02/02 11:51:27;;;;;;;;;3.33;2.33;;;;;;;;5096419;28;9137;-71
2023/02/02 11:54:03;;;;;;;;;1.00;1.00;;;;;;;;5093311;28;9239;-71
2023/02/02 11:56:31;;;;;;;;;3.00;2.00;;;;;;;;5101298;28;9161;-71
2023/02/02 11:59:02;;;;;;;;;1.00;1.00;;;;;;;;5078922;27;9171;-70
2023/02/02 12:01:32;;;;;;;;;1.00;1.00;;;;;;;;5097430;27;9833;-71
2023/02/02 12:04:01;;;;;;;;;0.00;0.00;;;;;;;;5097525;28;9227;-71
2023/02/02 12:06:35;;;;;;;;;1.33;1.33;;;;;;;;5083252;28;9004;-70
2023/02/02 12:09:09;;;;;;;;;1.00;1.00;;;;;;;;5099396;28;8995;-71
2023/02/02 12:11:44;;;;;;;;;1.00;1.00;;;;;;;;5095562;28;8996;-71
2023/02/02 12:14:25;;;;;;;;;1.00;1.00;;;;;;;;5091794;28;8950;-71
2023/02/02 12:16:59;;;;;;;;;1.00;1.00;;;;;;;;5073827;28;9302;-71
2023/02/02 12:19:42;;;;;;;;;1.67;0.00;;;;;;;;5090487;28;9207;-72
2023/02/02 12:22:22;;;;;;;;;0.33;0.33;;;;;;;;5095103;28;9198;-73
2023/02/02 12:24:55;;;;;;;;;0.00;0.00;;;;;;;;5079671;27;10123;-72
2023/02/02 12:27:32;;;;;;;;;1.33;1.00;;;;;;;;5092772;28;9365;-72
2023/02/02 12:30:15;;;;;;;;;2.67;2.00;;;;;;;;5098595;27;9155;-72
2023/02/02 12:33:03;;;;;;;;;0.00;0.00;;;;;;;;5096203;28;9179;-71
2023/02/02 12:35:48;;;;;;;;;2.00;2.00;;;;;;;;5098173;27;9246;-70
2023/02/02 12:38:24;;;;;;;;;0.00;0.00;;;;;;;;5095325;28;9377;-72
2023/02/02 12:41:22;;;;;;;;;1.00;1.00;;;;;;;;5096626;28;9226;-72
2023/02/02 12:43:52;;;;;;;;;0.00;0.00;;;;;;;;5097260;28;9382;-73
2023/02/02 12:46:35;;;;;;;;;0.00;0.00;;;;;;;;5075869;27;9337;-73
2023/02/02 12:49:31;;;;;;;;;0.33;0.33;;;;;;;;5096163;27;9180;-70
2023/02/02 12:52:11;;;;;;;;;2.00;2.00;;;;;;;;5092910;28;9310;-70
2023/02/02 12:54:53;;;;;;;;;0.67;0.00;;;;;;;;5076271;28;9454;-70
2023/02/02 12:57:28;;;;;;;;;1.50;0.50;;;;;;;;5091806;28;9704;-70
2023/02/02 13:00:12;;;;;;;;;1.00;1.00;;;;;;;;5096830;28;9458;-71
2023/02/02 13:02:50;;;;;;;;;0.00;0.00;;;;;;;;5095068;28;9406;-70
2023/02/02 13:05:34;;;;;;;;;0.50;0.50;;;;;;;;5091323;28;9503;-70
2023/02/02 13:08:05;;;;;;;;;2.25;1.00;;;;;;;;5091870;28;9491;-70
2023/02/02 13:10:36;;;;;;;;;1.00;1.00;;;;;;;;5098942;28;9410;-70
2023/02/02 13:13:07;;;;;;;;;4.00;1.00;;;;;;;;5095567;28;9461;-70
2023/02/02 13:15:37;;;;;;;;;2.50;1.00;;;;;;;;5079675;28;9770;-70
2023/02/02 13:18:11;;;;;;;;;1.00;1.00;;;;;;;;5094499;28;9618;-70
2023/02/02 13:20:41;;;;;;;;;0.50;0.50;;;;;;;;5090382;28;9636;-70
2023/02/02 13:23:13;;;;;;;;;0.75;0.75;;;;;;;;5082113;28;9779;-71
2023/02/02 13:25:45;;;;;;;;;2.00;1.00;;;;;;;;5100879;28;9664;-70
2023/02/02 13:28:18;;;;;;;;;1.25;1.25;;;;;;;;5098692;28;9684;-70
2023/02/02 13:30:48;;;;;;;;;1.00;1.00;;;;;;;;5099694;28;9459;-70
2023/02/02 13:33:21;;;;;;;;;3.00;1.00;;;;;;;;5099004;28;9376;-70
2023/02/02 13:35:53;;;;;;;;;1.00;1.00;;;;;;;;5098222;28;9442;-69
2023/02/02 13:38:23;;;;;;;;;0.67;0.67;;;;;;;;5098334;28;9288;-70
2023/02/02 13:40:51;;;;;;;;;0.00;0.00;;;;;;;;5077955;28;9545;-70
2023/02/02 13:43:27;;;;;;;;;1.00;1.00;;;;;;;;5079304;28;9323;-70
2023/02/02 13:46:04;;;;;;;;;1.00;1.00;;;;;;;;5079306;28;9444;-70
2023/02/02 13:48:40;;;;;;;;;0.75;0.75;;;;;;;;5059591;28;10135;-70
2023/02/02 13:51:49;;;;;;;;;0.00;0.00;;;;;;;;5079066;28;9544;-70
2023/02/02 13:54:49;;;;;;;;;2.75;1.00;;;;;;;;5078595;28;9318;-71
2023/02/02 13:57:35;;;;;;;;;1.00;1.00;;;;;;;;5076964;28;9515;-71
2023/02/02 14:00:04;;;;;;;;;1.00;1.00;;;;;;;;5068798;28;9347;-71
2023/02/02 14:02:34;;;;;;;;;0.75;0.75;;;;;;;;5090597;28;9476;-71
2023/02/02 14:05:05;;;;;;;;;1.00;1.00;;;;;;;;5102961;27;10280;-68
2023/02/02 14:07:38;;;;;;;;;0.00;0.00;;;;;;;;5088674;28;9432;-69
2023/02/02 14:10:07;;;;;;;;;2.50;1.00;;;;;;;;5087961;28;9349;-70
2023/02/02 14:12:36;;;;;;;;;2.00;1.00;;;;;;;;5086886;28;9491;-70
2023/02/02 14:15:05;;;;;;;;;0.00;0.00;;;;;;;;5080743;28;9398;-70
2023/02/02 14:17:52;;;;;;;;;2.00;2.00;;;;;;;;5088097;28;9372;-71
2023/02/02 14:20:40;;;;;;;;;1.00;1.00;;;;;;;;5097815;28;9457;-70
2023/02/02 14:23:41;;;;;;;;;1.00;1.00;;;;;;;;5098883;28;9573;-71
2023/02/02 14:26:09;;;;;;;;;2.25;1.50;;;;;;;;5094928;28;9312;-71
2023/02/02 14:28:44;;;;;;;;;1.25;1.00;;;;;;;;5097582;28;10280;-71
2023/02/02 14:31:44;;;;;;;;;1.00;1.00;;;;;;;;5089994;28;9493;-71
2023/02/02 14:34:32;;;;;;;;;0.00;0.00;;;;;;;;5080084;28;9595;-70
2023/02/02 14:37:16;;;;;;;;;1.00;1.00;;;;;;;;5093426;27;9560;-70
2023/02/02 14:39:53;;;;;;;;;2.00;1.75;;;;;;;;5095940;28;9541;-70
2023/02/02 14:45:23;;;;;;;;;1.00;1.00;;;;;;;;5102921;28;9501;-70
2023/02/02 14:47:53;;;;;;;;;2.00;1.00;;;;;;;;5104818;27;10203;-71
2023/02/02 14:50:28;;;;;;;;;1.50;0.00;;;;;;;;5102189;27;9565;-70
2023/02/02 14:53:07;;;;;;;;;2.50;1.00;;;;;;;;5089437;28;9403;-71
2023/02/02 14:55:36;;;;;;;;;0.00;0.00;;;;;;;;5103566;27;10299;-70
2023/02/02 14:58:05;;;;;;;;;2.25;1.00;;;;;;;;5100080;27;10066;-70
2023/02/02 15:00:34;;;;;;;;;2.00;2.00;;;;;;;;5090854;28;9886;-70
2023/02/02 15:03:36;;;;;;;;;3.00;2.00;;;;;;;;5100032;28;9453;-70
2023/02/02 15:06:07;;;;;;;;;1.00;1.00;;;;;;;;5089390;28;9454;-70
2023/02/02 15:08:36;;;;;;;;;2.00;0.00;;;;;;;;5091549;28;9448;-70
2023/02/02 15:13:53;;;;;;;;;2.00;2.00;;;;;;;;5098441;28;9368;-69
2023/02/02 15:16:25;;;;;;;;;0.25;0.25;;;;;;;;5104048;27;9484;-71
2023/02/02 15:19:00;;;;;;;;;1.00;1.00;;;;;;;;5084985;27;10186;-71
2023/02/02 15:21:28;;;;;;;;;1.00;1.00;;;;;;;;5093255;27;9529;-71
2023/02/02 15:23:57;;;;;;;;;1.00;1.00;;;;;;;;5101568;28;9409;-70
2023/02/02 15:26:28;;;;;;;;;0.25;0.25;;;;;;;;5079992;27;9491;-72
2023/02/02 15:28:58;;;;;;;;;3.00;1.75;;;;;;;;5097624;28;9877;-71
2023/02/02 15:31:29;;;;;;;;;1.50;0.50;;;;;;;;5087103;28;9622;-72
2023/02/02 15:34:00;;;;;;;;;2.00;2.00;;;;;;;;5099909;28;9544;-72